createdAt,value
2023-03-22T00:00:42.641Z,8.81
2023-03-22T00:05:58.676Z,8.79
2023-03-22T00:11:02.337Z,8.78
2023-03-22T00:16:07.945Z,8.75
2023-03-22T00:21:14.078Z,8.72
2023-03-22T00:26:17.987Z,8.70
2023-03-22T00:31:21.723Z,8.69
2023-03-22T00:36:25.471Z,8.67
2023-03-22T00:41:29.158Z,8.63
2023-03-22T00:46:32.971Z,8.62
2023-03-22T00:51:36.726Z,8.62
2023-03-22T00:56:40.561Z,8.63
2023-03-22T01:01:48.690Z,8.63
2023-03-22T01:06:59.610Z,8.63
2023-03-22T01:12:03.457Z,8.63
2023-03-22T01:17:08.051Z,8.64
2023-03-22T01:22:12.161Z,8.65
2023-03-22T01:27:16.971Z,8.66
2023-03-22T01:32:20.756Z,8.67
2023-03-22T01:37:28.079Z,8.66
2023-03-22T01:42:32.776Z,8.66
2023-03-22T01:47:37.275Z,8.67
2023-03-22T01:52:41.938Z,8.68
2023-03-22T01:57:56.065Z,8.69
2023-03-22T02:03:08.681Z,8.68
2023-03-22T02:08:17.083Z,8.68
2023-03-22T02:13:42.671Z,8.66
2023-03-22T02:19:35.650Z,8.65
2023-03-22T02:24:49.976Z,8.63
2023-03-22T02:30:21.386Z,8.61
2023-03-22T02:35:37.244Z,8.61
2023-03-22T02:40:44.097Z,8.60
2023-03-22T02:45:49.938Z,8.59
2023-03-22T02:51:01.331Z,8.60
2023-03-22T02:56:19.941Z,8.60
2023-03-22T03:01:36.962Z,8.59
2023-03-22T03:06:46.490Z,8.56
2023-03-22T03:11:52.689Z,8.54
2023-03-22T03:17:10.896Z,8.54
2023-03-22T03:22:26.627Z,8.54
2023-03-22T03:27:37.896Z,8.55
2023-03-22T03:33:19.647Z,8.53
2023-03-22T03:38:26.952Z,8.52
2023-03-22T03:43:31.812Z,8.50
2023-03-22T03:48:38.392Z,8.46
2023-03-22T03:53:42.356Z,8.44
2023-03-22T03:58:46.101Z,8.42
2023-03-22T04:03:51.002Z,8.42
2023-03-22T04:09:14.779Z,8.41
2023-03-22T04:14:21.608Z,8.41
2023-03-22T04:19:26.242Z,8.39
2023-03-22T04:24:30.047Z,8.39
2023-03-22T04:29:37.450Z,8.37
2023-03-22T04:34:58.399Z,8.34
2023-03-22T04:40:06.274Z,8.31
2023-03-22T04:45:21.291Z,8.27
2023-03-22T04:50:30.476Z,8.25
2023-03-22T04:55:37.042Z,8.23
2023-03-22T05:00:42.678Z,8.22
2023-03-22T05:05:56.757Z,8.20
2023-03-22T05:11:10.026Z,8.16
2023-03-22T05:16:14.008Z,8.14
2023-03-22T05:21:28.914Z,8.13
2023-03-22T05:26:38.315Z,8.16
2023-03-22T05:31:42.497Z,8.18
2023-03-22T05:36:46.876Z,8.21
2023-03-22T05:42:16.600Z,8.25
2023-03-22T05:47:21.400Z,8.29
2023-03-22T05:52:37.230Z,8.36
2023-03-22T05:58:00.074Z,8.47
2023-03-22T06:03:04.713Z,8.61
2023-03-22T06:08:10.556Z,8.77
2023-03-22T06:13:14.942Z,8.90
2023-03-22T06:18:18.814Z,9.01
2023-03-22T06:23:26.839Z,9.17
2023-03-22T06:28:31.210Z,9.41
2023-03-22T06:33:38.248Z,9.71
2023-03-22T06:38:54.964Z,10.08
2023-03-22T06:43:59.348Z,10.43
2023-03-22T06:49:32.131Z,10.77
2023-03-22T06:54:36.460Z,11.03
2023-03-22T06:59:40.525Z,11.37
2023-03-22T07:04:46.663Z,11.62
2023-03-22T07:09:50.883Z,11.86
2023-03-22T07:14:55.133Z,12.00
2023-03-22T07:20:22.075Z,12.12
2023-03-22T07:25:26.584Z,12.25
2023-03-22T07:30:39.099Z,12.41
2023-03-22T07:35:43.109Z,12.51
2023-03-22T07:40:47.352Z,12.63
2023-03-22T07:45:53.166Z,12.82
2023-03-22T07:51:17.361Z,13.01
2023-03-22T07:56:21.550Z,13.12
2023-03-22T08:01:25.235Z,13.27
2023-03-22T08:06:37.368Z,13.48
2023-03-22T08:11:41.619Z,13.70
2023-03-22T08:16:46.667Z,13.96
2023-03-22T08:21:51.325Z,14.32
2023-03-22T08:27:19.518Z,14.59
2023-03-22T08:32:26.038Z,14.76
2023-03-22T08:37:29.698Z,14.87
2023-03-22T08:42:34.061Z,15.00
2023-03-22T08:47:38.551Z,15.23
2023-03-22T08:52:44.515Z,15.39
2023-03-22T08:57:59.319Z,15.48
2023-03-22T09:03:13.363Z,15.56
2023-03-22T09:08:19.381Z,15.53
2023-03-22T09:13:27.255Z,15.55
2023-03-22T09:18:36.446Z,15.58
2023-03-22T09:23:48.147Z,15.70
2023-03-22T09:28:56.019Z,15.84
2023-03-22T09:33:59.887Z,16.16
2023-03-22T09:39:07.575Z,16.50
2023-03-22T09:44:17.512Z,16.61
2023-03-22T09:49:26.649Z,16.29
2023-03-22T09:54:34.485Z,16.28
2023-03-22T09:59:48.604Z,16.57
2023-03-22T10:05:14.806Z,16.78
2023-03-22T10:10:23.373Z,16.82
2023-03-22T10:15:49.917Z,16.86
2023-03-22T10:21:02.102Z,16.99
2023-03-22T10:26:07.707Z,17.22
2023-03-22T10:31:16.206Z,17.42
2023-03-22T10:36:23.859Z,17.42
2023-03-22T10:41:28.881Z,17.52
2023-03-22T10:46:38.974Z,17.79
2023-03-22T10:51:57.753Z,17.97
2023-03-22T10:57:01.611Z,18.18
2023-03-22T11:02:05.587Z,18.35
2023-03-22T11:07:17.246Z,18.45
2023-03-22T11:12:21.074Z,18.61
2023-03-22T11:17:26.374Z,18.60
2023-03-22T11:22:44.440Z,18.62
2023-03-22T11:28:15.715Z,18.75
2023-03-22T11:33:21.744Z,18.74
2023-03-22T11:38:30.001Z,18.78
2023-03-22T11:43:40.259Z,18.85
2023-03-22T11:48:46.900Z,18.95
2023-03-22T11:53:50.918Z,19.14
2023-03-22T11:59:06.078Z,19.28
2023-03-22T12:04:16.257Z,19.34
2023-03-22T12:09:41.264Z,19.48
2023-03-22T12:15:04.234Z,19.63
2023-03-22T12:20:29.771Z,19.79
2023-03-22T12:25:35.708Z,19.94
2023-03-22T12:30:45.495Z,20.00
2023-03-22T12:35:51.235Z,20.07
2023-03-22T12:40:57.766Z,20.03
2023-03-22T12:46:03.980Z,20.01
2023-03-22T12:51:09.927Z,20.11
2023-03-22T12:56:16.360Z,20.18
2023-03-22T13:01:24.736Z,20.15
2023-03-22T13:06:28.635Z,20.17
2023-03-22T13:11:32.635Z,20.14
2023-03-22T13:16:49.744Z,20.07
2023-03-22T13:22:18.016Z,19.92
2023-03-22T13:27:21.970Z,19.76
2023-03-22T13:32:25.749Z,19.69
2023-03-22T13:37:45.517Z,19.64
2023-03-22T13:42:49.263Z,19.61
2023-03-22T13:48:10.389Z,19.61
2023-03-22T13:53:34.094Z,19.58
2023-03-22T13:58:47.122Z,19.66
2023-03-22T14:03:51.426Z,19.77
2023-03-22T14:08:59.571Z,19.80
2023-03-22T14:14:07.344Z,19.75
2023-03-22T14:19:17.932Z,19.68
